createdAt,value
2022-10-09T00:04:25.073Z,50.90
2022-10-09T00:09:27.975Z,50.80
2022-10-09T00:14:32.354Z,50.90
2022-10-09T00:19:35.334Z,51.10
2022-10-09T00:24:38.331Z,51.00
2022-10-09T00:29:43.067Z,50.90
2022-10-09T00:34:48.619Z,51.00
2022-10-09T00:39:51.533Z,51.00
2022-10-09T00:44:59.920Z,51.10
2022-10-09T00:50:11.134Z,51.10
2022-10-09T00:55:15.729Z,51.10
2022-10-09T01:00:21.322Z,51.10
2022-10-09T01:05:31.072Z,51.00
2022-10-09T01:10:42.260Z,50.90
2022-10-09T01:15:53.956Z,51.00
2022-10-09T01:21:02.543Z,51.10
2022-10-09T01:26:16.259Z,51.20
2022-10-09T01:31:23.759Z,51.20
2022-10-09T01:36:27.964Z,51.20
2022-10-09T01:41:31.476Z,51.20
2022-10-09T01:46:35.918Z,51.20
2022-10-09T01:51:49.168Z,51.20
2022-10-09T01:56:56.000Z,51.20
2022-10-09T02:02:01.322Z,51.20
2022-10-09T02:07:05.724Z,51.10
2022-10-09T02:12:11.045Z,51.30
2022-10-09T02:17:19.521Z,51.40
2022-10-09T02:22:27.106Z,51.20
2022-10-09T02:27:30.528Z,51.10
2022-10-09T02:32:34.844Z,51.20
2022-10-09T02:37:38.919Z,51.20
2022-10-09T02:42:41.881Z,51.30
2022-10-09T02:47:46.141Z,51.30
2022-10-09T02:52:49.368Z,51.30
2022-10-09T02:57:52.457Z,51.30
2022-10-09T03:02:57.180Z,51.30
2022-10-09T03:08:00.319Z,51.30
2022-10-09T03:13:03.243Z,51.30
2022-10-09T03:18:07.604Z,51.30
2022-10-09T03:23:10.579Z,51.50
2022-10-09T03:28:13.542Z,51.50
2022-10-09T03:33:17.853Z,51.40
2022-10-09T03:38:21.034Z,51.40
2022-10-09T03:43:24.008Z,51.40
2022-10-09T03:48:28.267Z,51.40
2022-10-09T03:53:31.647Z,51.50
2022-10-09T03:58:34.829Z,51.50
2022-10-09T04:03:39.326Z,51.30
2022-10-09T04:08:42.334Z,51.40
2022-10-09T04:13:45.361Z,51.30
2022-10-09T04:18:49.698Z,51.30
2022-10-09T04:23:53.962Z,51.40
2022-10-09T04:28:58.236Z,51.40
2022-10-09T04:34:02.562Z,51.40
2022-10-09T04:39:05.847Z,51.50
2022-10-09T04:44:08.885Z,51.40
2022-10-09T04:49:14.783Z,51.40
2022-10-09T04:54:17.772Z,51.30
2022-10-09T04:59:20.766Z,51.30
2022-10-09T05:04:25.067Z,51.40
2022-10-09T05:09:28.043Z,52.20
2022-10-09T05:14:30.974Z,51.60
2022-10-09T05:19:35.553Z,51.80
2022-10-09T05:24:38.524Z,51.80
2022-10-09T05:29:41.443Z,52.40
2022-10-09T05:34:45.743Z,51.70
2022-10-09T05:39:48.731Z,51.70
2022-10-09T05:44:51.648Z,51.60
2022-10-09T05:49:55.920Z,51.70
2022-10-09T05:54:58.837Z,51.70
2022-10-09T06:00:01.787Z,51.80
2022-10-09T06:05:16.923Z,51.80
2022-10-09T06:10:19.935Z,51.80
2022-10-09T06:15:22.969Z,51.80
2022-10-09T06:20:27.309Z,51.80
2022-10-09T06:25:32.029Z,51.90
2022-10-09T06:30:38.516Z,52.70
2022-10-09T06:35:43.753Z,52.00
2022-10-09T06:40:46.684Z,52.20
2022-10-09T06:45:49.677Z,52.20
2022-10-09T06:50:53.994Z,52.20
2022-10-09T06:55:58.708Z,52.30
2022-10-09T07:01:06.682Z,52.20
2022-10-09T07:06:13.981Z,52.30
2022-10-09T07:11:20.890Z,52.50
2022-10-09T07:16:26.000Z,52.70
2022-10-09T07:21:30.443Z,53.00
2022-10-09T07:26:35.704Z,53.30
2022-10-09T07:31:39.812Z,53.50
2022-10-09T07:36:44.122Z,53.80
2022-10-09T07:41:47.720Z,54.00
2022-10-09T07:46:51.537Z,53.90
2022-10-09T07:51:55.853Z,54.30
2022-10-09T07:56:58.777Z,54.60
2022-10-09T08:02:01.713Z,54.70
2022-10-09T08:07:06.210Z,54.90
2022-10-09T08:12:09.163Z,54.90
2022-10-09T08:17:12.229Z,55.00
2022-10-09T08:22:16.513Z,55.00
2022-10-09T08:27:19.460Z,55.20
2022-10-09T08:32:22.411Z,55.20
2022-10-09T08:37:26.689Z,55.30
2022-10-09T08:42:34.014Z,55.60
2022-10-09T08:47:41.967Z,55.70
2022-10-09T08:52:51.079Z,55.70
2022-10-09T08:57:56.637Z,55.90
2022-10-09T09:03:20.536Z,55.70
2022-10-09T09:08:32.731Z,56.10
2022-10-09T09:13:45.439Z,56.30
2022-10-09T09:19:00.493Z,56.10
2022-10-09T09:24:14.725Z,55.90
2022-10-09T09:29:23.150Z,55.70
2022-10-09T09:34:34.752Z,55.60
2022-10-09T09:40:34.988Z,54.70
2022-10-09T09:45:08.636Z,54.60
2022-10-09T09:50:28.621Z,54.50
2022-10-09T09:55:36.849Z,54.50
2022-10-09T10:00:39.943Z,54.40
2022-10-09T10:05:44.991Z,54.20
2022-10-09T10:10:50.127Z,53.90
2022-10-09T10:15:56.236Z,53.40
2022-10-09T10:21:04.357Z,53.50
2022-10-09T10:26:16.252Z,53.10
2022-10-09T10:31:38.386Z,53.10
2022-10-09T10:36:41.449Z,53.00
2022-10-09T10:41:50.596Z,53.60
2022-10-09T10:47:00.043Z,52.90
2022-10-09T10:52:18.320Z,53.10
2022-10-09T10:57:28.072Z,52.40
2022-10-09T11:03:23.333Z,51.80
2022-10-09T11:08:37.626Z,50.20
2022-10-09T11:13:50.126Z,51.80
2022-10-09T11:19:05.988Z,52.00
2022-10-09T11:24:37.162Z,51.20
2022-10-09T11:29:48.876Z,50.10
2022-10-09T11:34:59.003Z,51.00
2022-10-09T11:40:07.050Z,50.00
2022-10-09T11:45:23.164Z,50.80
2022-10-09T11:50:48.955Z,49.50
2022-10-09T11:56:03.840Z,49.70
2022-10-09T12:01:20.337Z,49.60
2022-10-09T12:06:23.416Z,50.10
2022-10-09T12:11:26.950Z,50.90
2022-10-09T12:16:41.068Z,51.20
2022-10-09T12:21:50.331Z,50.40
2022-10-09T12:26:56.294Z,50.10
2022-10-09T12:32:06.471Z,49.90
2022-10-09T12:37:17.957Z,49.50
2022-10-09T12:42:24.407Z,49.20
2022-10-09T12:47:30.822Z,49.10
2022-10-09T12:52:33.854Z,48.40
2022-10-09T12:57:37.132Z,47.90
2022-10-09T13:02:41.979Z,48.20
2022-10-09T13:07:52.518Z,48.60
2022-10-09T13:12:58.836Z,46.20
2022-10-09T13:18:22.517Z,48.30
2022-10-09T13:23:30.931Z,46.80
2022-10-09T13:28:34.265Z,45.80
2022-10-09T13:33:38.711Z,45.50
2022-10-09T13:38:42.835Z,45.40
2022-10-09T13:43:46.112Z,44.60
2022-10-09T13:48:50.456Z,45.60
2022-10-09T13:53:53.766Z,45.10
2022-10-09T13:58:56.708Z,45.70
2022-10-09T14:04:00.979Z,44.80
2022-10-09T14:09:04.379Z,44.70
2022-10-09T14:14:07.540Z,46.10
2022-10-09T14:19:12.106Z,45.90
2022-10-09T14:24:15.509Z,45.70
2022-10-09T14:29:18.728Z,43.70
2022-10-09T14:34:23.163Z,43.60
2022-10-09T14:39:26.132Z,44.40
2022-10-09T14:44:29.244Z,45.00
2022-10-09T14:49:33.684Z,45.00
2022-10-09T14:54:36.771Z,44.10
2022-10-09T14:59:39.717Z,44.70
2022-10-09T15:04:44.096Z,44.30
2022-10-09T15:09:47.396Z,44.20
2022-10-09T15:14:50.593Z,44.00
2022-10-09T15:19:55.299Z,43.80
2022-10-09T15:24:58.251Z,44.10
2022-10-09T15:30:01.200Z,44.40
2022-10-09T15:35:06.195Z,44.30
2022-10-09T15:40:10.400Z,44.40
2022-10-09T15:45:13.485Z,44.60
2022-10-09T15:50:18.328Z,44.40
2022-10-09T15:55:21.423Z,44.60
2022-10-09T16:00:24.452Z,44.90
2022-10-09T16:05:28.820Z,44.90
2022-10-09T16:10:31.993Z,44.80
2022-10-09T16:15:35.020Z,44.70
2022-10-09T16:20:40.457Z,44.70
2022-10-09T16:25:44.260Z,44.50
2022-10-09T16:30:47.197Z,44.90
2022-10-09T16:35:51.561Z,44.90
2022-10-09T16:41:01.728Z,45.00
2022-10-09T16:46:19.431Z,45.00
2022-10-09T16:51:26.412Z,45.00
2022-10-09T16:56:33.287Z,45.00
2022-10-09T17:01:37.754Z,45.00
2022-10-09T17:06:43.759Z,45.00
2022-10-09T17:11:47.157Z,44.90
2022-10-09T17:16:50.103Z,45.00
2022-10-09T17:21:54.762Z,45.00
2022-10-09T17:26:58.346Z,45.20
2022-10-09T17:32:01.357Z,45.20
2022-10-09T17:37:05.646Z,45.20
2022-10-09T17:42:08.721Z,45.40
2022-10-09T17:47:11.715Z,45.50
2022-10-09T17:52:16.547Z,45.60
2022-10-09T17:57:20.068Z,45.80
2022-10-09T18:02:23.029Z,45.90
2022-10-09T18:07:27.352Z,45.90
2022-10-09T18:12:30.312Z,46.00
2022-10-09T18:17:34.401Z,46.00
2022-10-09T18:22:38.956Z,46.10
2022-10-09T18:27:41.891Z,46.20
2022-10-09T18:32:44.807Z,46.10
2022-10-09T18:37:49.153Z,46.20
2022-10-09T18:42:53.084Z,46.40
2022-10-09T18:47:56.874Z,46.30
2022-10-09T18:53:01.579Z,46.30
2022-10-09T18:58:05.847Z,46.30
2022-10-09T19:03:10.419Z,46.30
2022-10-09T19:08:14.747Z,46.30
2022-10-09T19:13:18.633Z,46.50
2022-10-09T19:18:23.348Z,46.40
2022-10-09T19:23:28.755Z,46.50
2022-10-09T19:28:32.834Z,46.50
2022-10-09T19:33:36.243Z,46.50
2022-10-09T19:38:41.430Z,46.50
2022-10-09T19:43:46.275Z,46.70
2022-10-09T19:48:49.556Z,46.70
2022-10-09T19:53:54.769Z,46.70
2022-10-09T19:58:58.918Z,46.70
2022-10-09T20:04:04.253Z,46.60
2022-10-09T20:09:11.488Z,47.50
2022-10-09T20:14:14.473Z,46.70
2022-10-09T20:19:17.430Z,46.60
2022-10-09T20:24:22.600Z,46.80
2022-10-09T20:29:27.127Z,47.00
2022-10-09T20:34:30.104Z,46.80
2022-10-09T20:39:35.321Z,47.70
2022-10-09T20:44:38.272Z,47.30
2022-10-09T20:49:43.492Z,47.30
2022-10-09T20:54:47.897Z,47.30
2022-10-09T20:59:50.889Z,47.40
2022-10-09T21:04:53.851Z,47.40
2022-10-09T21:09:58.114Z,47.30
2022-10-09T21:15:01.137Z,47.40
2022-10-09T21:20:04.457Z,47.20
2022-10-09T21:25:09.791Z,47.20
2022-10-09T21:30:14.584Z,47.50
2022-10-09T21:35:17.613Z,47.60
2022-10-09T21:40:23.651Z,47.60
2022-10-09T21:45:26.561Z,47.80
2022-10-09T21:50:30.089Z,47.70
2022-10-09T21:55:34.428Z,47.60
2022-10-09T22:00:38.871Z,47.80
2022-10-09T22:05:42.495Z,47.80
2022-10-09T22:10:46.791Z,47.80
2022-10-09T22:15:51.312Z,47.80
2022-10-09T22:20:54.886Z,47.80
2022-10-09T22:26:02.389Z,47.90
2022-10-09T22:31:06.737Z,47.80
2022-10-09T22:36:12.913Z,47.90
2022-10-09T22:41:19.638Z,48.10
2022-10-09T22:46:25.294Z,48.00
2022-10-09T22:51:29.334Z,48.00
2022-10-09T22:56:35.536Z,47.90
2022-10-09T23:01:41.601Z,48.10
2022-10-09T23:06:45.952Z,48.40
2022-10-09T23:11:50.233Z,48.30
2022-10-09T23:16:53.190Z,48.40
2022-10-09T23:21:56.105Z,48.60
2022-10-09T23:27:00.369Z,49.00
2022-10-09T23:32:04.192Z,49.00
2022-10-09T23:37:07.110Z,48.80
2022-10-09T23:42:11.575Z,48.90
2022-10-09T23:47:14.535Z,49.00
2022-10-09T23:52:17.470Z,49.10
2022-10-09T23:57:21.784Z,49.00
